Aérodrome :
LOGIN :

S'inscrire | Disclaimer

   EN    FR    IT 

 










Légende :    VFR   VFR Marginal   IFR   IFR Intensif   IFR Très Intensif
Visi : 
Plafond : 
>= 8 km
>= 3000ft
5 à 8 km
1000 à 3000 ft
1500m à 5 km
500 à 1000 ft
800 à 1500m
200 à 500 ft
< 800m
< 200 ft
Symboles :   Orages  Brouillard  Fortes neiges  Fortes précipitations  Vent > 20 kt
SIGMETs :   Divers  Orages  Givrage  Turbulence  Onde Orograph.  Cendres Volcan.






- Altitude de l'aérodrome : 24 ft
- Code IATA : SGD


EKSB - Sonderborg

DERNIER METAR :
  • 051920Z 22014G29KT 190V250 8000 SCT009 BKN013 06/04 Q1008

METARs EXPIRÉS :
  • 051851Z 22011KT 180V270 8000 BKN008 06/05 Q1008
  • 051820Z 23012G22KT 190V270 8000 SCT010 BKN015 07/04 Q1009
  • 051751Z 22011G24KT 190V270 8000 BKN010 BKN013 07/05 Q1009
  • 051720Z 22011G21KT 190V260 8000 BKN010 07/05 Q1009
  • 051650Z 22011KT 190V270 8000 OVC010 07/05 Q1010
  • 051620Z 23011G22KT 190V280 8000 BKN010 07/05 Q1010

TAF TAF EKSB
Valide du 05 à 18h jusqu'au 05 à 23h UTC


051721Z 0518/0523 22018KT 8000 BKN020
TEMPO 0518/0523 BKN008



MET'MAP, la Météo Aéronautique d'un coup d'oeil ! - Copyright ORBIFLY Décembre 2007 - Disclaimer

ORBIFLY MET'MAP TEAM :

Programmation & Développement : Alexandra Zaïnal
Sur une idée originale de : Baudouin d'Aumeries
Assistance à la programmation : Marc-Olivier Méhu
Soutien technique & logistique : Manuel Goepfert

Contact : metmap@orbifly.com




SOURCES & CREDITS :

   NOAA